createdAt,value
2023-01-09T00:00:54.626Z,3.25
2023-01-09T00:05:56.396Z,3.13
2023-01-09T00:10:58.209Z,3.47
2023-01-09T00:16:00.197Z,3.55
2023-01-09T00:21:04.827Z,2.97
2023-01-09T00:26:09.737Z,2.25
2023-01-09T00:31:12.072Z,1.83
2023-01-09T00:36:13.948Z,1.85
2023-01-09T00:41:20.739Z,1.48
2023-01-09T00:46:27.849Z,1.40
2023-01-09T00:51:29.997Z,1.20
2023-01-09T00:56:33.899Z,1.25
2023-01-09T01:01:36.173Z,1.35
2023-01-09T01:06:56.638Z,1.52
2023-01-09T01:11:58.427Z,1.30
2023-01-09T01:17:00.546Z,1.38
2023-01-09T01:22:03.024Z,1.30
2023-01-09T01:27:04.861Z,1.42
2023-01-09T01:32:06.826Z,2.10
2023-01-09T01:37:08.645Z,1.63
2023-01-09T01:42:13.081Z,1.52
2023-01-09T01:47:15.658Z,1.45
2023-01-09T01:52:19.414Z,1.15
2023-01-09T01:57:21.370Z,1.48
2023-01-09T02:02:28.214Z,1.13
2023-01-09T02:07:30.378Z,0.93
2023-01-09T02:12:32.257Z,1.00
2023-01-09T02:17:49.154Z,1.15
2023-01-09T02:23:18.665Z,1.00
2023-01-09T02:28:39.626Z,1.00
2023-01-09T02:34:22.931Z,0.95
2023-01-09T02:39:51.425Z,1.00
2023-01-09T02:44:53.943Z,1.02
2023-01-09T02:50:02.445Z,1.20
2023-01-09T02:55:11.284Z,1.00
2023-01-09T03:00:33.995Z,1.13
2023-01-09T03:05:49.733Z,1.10
2023-01-09T03:11:06.646Z,0.95
2023-01-09T03:16:11.403Z,1.25
2023-01-09T03:21:13.641Z,1.50
2023-01-09T03:26:15.628Z,0.73
2023-01-09T03:31:17.715Z,1.25
2023-01-09T03:36:21.654Z,1.15
2023-01-09T03:41:23.476Z,1.27
2023-01-09T03:46:25.249Z,1.10
2023-01-09T03:51:27.113Z,1.08
2023-01-09T03:56:28.930Z,1.40
2023-01-09T04:01:30.929Z,1.35
2023-01-09T04:06:32.973Z,1.65
2023-01-09T04:11:34.731Z,1.83
2023-01-09T04:16:37.724Z,1.00
2023-01-09T04:21:39.538Z,1.25
2023-01-09T04:26:41.519Z,1.23
2023-01-09T04:31:43.368Z,1.67
2023-01-09T04:36:45.411Z,1.30
2023-01-09T04:41:50.003Z,1.73
2023-01-09T04:46:52.170Z,1.40
2023-01-09T04:51:53.986Z,1.10
2023-01-09T04:56:56.064Z,1.55
2023-01-09T05:01:59.412Z,1.50
2023-01-09T05:07:01.598Z,1.67
2023-01-09T05:12:03.804Z,1.52
2023-01-09T05:17:05.615Z,1.15
2023-01-09T05:22:07.393Z,2.40
2023-01-09T05:27:09.176Z,1.27
2023-01-09T05:32:11.035Z,1.52
2023-01-09T05:37:12.863Z,2.15
2023-01-09T05:42:14.659Z,1.90
2023-01-09T05:47:16.485Z,2.05
2023-01-09T05:52:18.307Z,1.77
2023-01-09T05:57:20.190Z,1.23
2023-01-09T06:02:22.089Z,2.22
2023-01-09T06:07:24.064Z,1.50
2023-01-09T06:12:26.145Z,1.17
2023-01-09T06:17:28.019Z,2.45
2023-01-09T06:22:29.856Z,1.20
2023-01-09T06:27:31.900Z,1.65
2023-01-09T06:32:33.693Z,1.27
2023-01-09T06:37:35.469Z,1.52
2023-01-09T06:42:37.264Z,2.05
2023-01-09T06:47:39.755Z,1.52
2023-01-09T06:52:41.609Z,1.48
2023-01-09T06:57:43.661Z,1.17
2023-01-09T07:02:45.568Z,1.48
2023-01-09T07:07:47.394Z,1.25
2023-01-09T07:12:49.196Z,1.60
2023-01-09T07:17:54.661Z,1.20
2023-01-09T07:22:57.500Z,1.20
2023-01-09T07:27:59.348Z,1.20
2023-01-09T07:33:03.798Z,1.90
2023-01-09T07:38:05.862Z,0.77
2023-01-09T07:43:07.720Z,1.52
2023-01-09T07:48:09.554Z,1.42
2023-01-09T07:53:11.343Z,1.00
2023-01-09T07:58:13.171Z,1.45
2023-01-09T08:03:14.991Z,1.00
2023-01-09T08:08:16.788Z,1.45
2023-01-09T08:13:18.575Z,0.80
2023-01-09T08:18:20.526Z,1.00
2023-01-09T08:23:22.371Z,1.35
2023-01-09T08:28:24.399Z,1.38
2023-01-09T08:33:26.739Z,1.58
2023-01-09T08:38:28.539Z,1.00
2023-01-09T08:43:49.087Z,2.75
2023-01-09T08:48:50.938Z,0.95
2023-01-09T08:53:52.694Z,1.00
2023-01-09T08:58:54.471Z,1.30
2023-01-09T09:03:56.234Z,1.00
2023-01-09T09:09:02.770Z,1.65
2023-01-09T09:14:24.959Z,1.48
2023-01-09T09:19:27.361Z,0.80
2023-01-09T09:24:29.141Z,0.73
2023-01-09T09:29:30.919Z,0.93
2023-01-09T09:34:32.736Z,0.73
2023-01-09T09:39:34.778Z,0.80
2023-01-09T09:44:54.341Z,0.60
2023-01-09T09:50:11.601Z,0.70
2023-01-09T09:55:25.216Z,0.75
2023-01-09T10:00:28.156Z,0.60
2023-01-09T10:05:37.234Z,0.85
2023-01-09T10:10:53.081Z,0.75
2023-01-09T10:16:28.590Z,1.08
2023-01-09T10:21:46.023Z,0.70
2023-01-09T10:26:54.095Z,1.02
2023-01-09T10:32:28.215Z,0.90
2023-01-09T10:37:35.515Z,0.70
2023-01-09T10:42:55.993Z,1.05
2023-01-09T10:48:21.851Z,0.70
2023-01-09T10:53:28.810Z,0.90
2023-01-09T10:58:30.660Z,1.27
2023-01-09T11:03:32.496Z,0.90
2023-01-09T11:08:42.939Z,0.88
2023-01-09T11:13:48.559Z,1.30
2023-01-09T11:18:52.816Z,1.00
2023-01-09T11:24:27.433Z,1.23
2023-01-09T11:29:29.321Z,1.20
2023-01-09T11:34:33.444Z,1.02
2023-01-09T11:39:39.614Z,1.38
2023-01-09T11:44:41.429Z,1.25
2023-01-09T11:49:43.612Z,1.23
2023-01-09T11:55:04.324Z,1.45
2023-01-09T12:00:26.416Z,1.38
2023-01-09T12:05:52.158Z,1.88
2023-01-09T12:11:13.799Z,2.55
2023-01-09T12:16:34.316Z,1.85
2023-01-09T12:21:48.788Z,1.63
2023-01-09T12:27:17.339Z,1.40
2023-01-09T12:32:46.777Z,1.48
2023-01-09T12:38:26.160Z,2.33
2023-01-09T12:43:37.191Z,1.45
2023-01-09T12:49:23.612Z,2.33
2023-01-09T12:54:41.180Z,2.00
2023-01-09T12:59:54.057Z,1.50
2023-01-09T13:05:32.909Z,1.80
2023-01-09T13:10:46.201Z,2.10
2023-01-09T13:15:54.667Z,1.55
2023-01-09T13:20:56.841Z,2.75
2023-01-09T13:26:02.456Z,2.10
2023-01-09T13:31:21.242Z,2.45
2023-01-09T13:36:29.511Z,1.80
2023-01-09T13:41:51.024Z,1.77
2023-01-09T13:46:56.732Z,1.80
2023-01-09T13:52:05.549Z,1.77
2023-01-09T13:57:26.596Z,1.85
2023-01-09T14:02:52.431Z,2.17
2023-01-09T14:08:10.714Z,2.65
2023-01-09T14:13:20.730Z,2.05
2023-01-09T14:18:26.766Z,1.97
2023-01-09T14:23:50.241Z,2.33
2023-01-09T14:29:12.713Z,2.28
2023-01-09T14:34:32.052Z,2.10
2023-01-09T14:39:36.444Z,2.35
2023-01-09T14:44:47.279Z,2.92
2023-01-09T14:55:01.628Z,2.88
2023-01-09T15:00:12.883Z,2.08
2023-01-09T15:05:20.145Z,2.55
2023-01-09T15:10:26.212Z,3.03
2023-01-09T15:15:28.820Z,2.85
2023-01-09T15:20:32.524Z,2.28
2023-01-09T15:25:39.562Z,1.50
2023-01-09T15:30:43.420Z,2.00
2023-01-09T15:35:49.231Z,1.65
2023-01-09T15:40:57.621Z,1.75
2023-01-09T15:46:00.506Z,2.33
2023-01-09T15:51:18.364Z,1.85
2023-01-09T15:56:24.990Z,2.67
2023-01-09T16:01:40.106Z,2.50
2023-01-09T16:06:50.900Z,1.98
2023-01-09T16:17:02.314Z,2.53
2023-01-09T16:22:04.197Z,2.38
2023-01-09T16:27:35.733Z,2.20
2023-01-09T16:32:47.854Z,1.95
2023-01-09T16:37:49.632Z,3.05
2023-01-09T16:43:07.259Z,2.58
2023-01-09T16:48:18.478Z,2.72
2023-01-09T16:53:24.139Z,1.90
2023-01-09T16:58:30.919Z,1.92
2023-01-09T17:03:33.038Z,2.53
2023-01-09T17:08:36.649Z,2.22
2023-01-09T17:13:38.412Z,2.53
2023-01-09T17:18:40.423Z,1.48
2023-01-09T17:23:42.223Z,2.92
2023-01-09T17:28:48.317Z,2.30
2023-01-09T17:33:50.217Z,2.28
2023-01-09T17:38:55.201Z,1.75
2023-01-09T17:43:58.738Z,1.38
2023-01-09T17:49:01.643Z,1.48
2023-01-09T17:54:03.995Z,1.00
2023-01-09T17:59:10.175Z,1.55
2023-01-09T18:04:11.991Z,1.42
2023-01-09T18:09:17.329Z,3.45
2023-01-09T18:14:19.585Z,3.83
2023-01-09T18:19:21.528Z,2.63
2023-01-09T18:24:23.443Z,2.42
2023-01-09T18:29:25.376Z,3.90
2023-01-09T18:34:27.472Z,5.05
2023-01-09T18:39:29.333Z,2.92
2023-01-09T18:44:31.107Z,2.63
2023-01-09T18:49:32.870Z,8.80
2023-01-09T18:54:34.891Z,7.05
2023-01-09T18:59:36.745Z,5.57
2023-01-09T19:04:38.586Z,8.27
2023-01-09T19:09:40.487Z,3.90
2023-01-09T19:14:42.301Z,2.67
2023-01-09T19:19:44.194Z,2.35
2023-01-09T19:24:46.005Z,1.90
2023-01-09T19:29:49.026Z,1.55
2023-01-09T19:34:50.891Z,2.05
2023-01-09T19:39:52.681Z,1.90
2023-01-09T19:44:54.552Z,1.95
2023-01-09T19:49:56.442Z,1.92
2023-01-09T19:54:58.512Z,2.65
2023-01-09T20:00:00.396Z,1.98
2023-01-09T20:05:02.151Z,2.47
2023-01-09T20:10:04.811Z,2.20
2023-01-09T20:15:10.001Z,1.85
2023-01-09T20:20:11.952Z,1.67
2023-01-09T20:25:13.824Z,1.85
2023-01-09T20:30:15.921Z,1.48
2023-01-09T20:35:18.132Z,2.30
2023-01-09T20:40:19.908Z,1.60
2023-01-09T20:45:21.980Z,1.83
2023-01-09T20:50:23.826Z,1.95
2023-01-09T20:55:25.644Z,2.58
2023-01-09T21:00:31.636Z,2.20
2023-01-09T21:05:33.487Z,2.30
2023-01-09T21:10:35.238Z,1.75
2023-01-09T21:15:38.761Z,3.42
2023-01-09T21:20:40.584Z,3.60
2023-01-09T21:25:44.471Z,2.13
2023-01-09T21:30:49.632Z,3.45
2023-01-09T21:35:56.085Z,3.33
2023-01-09T21:41:17.856Z,3.47
2023-01-09T21:46:38.630Z,3.80
2023-01-09T21:56:43.044Z,3.25
2023-01-09T22:01:44.979Z,3.35
2023-01-09T22:06:46.995Z,3.30
2023-01-09T22:11:48.769Z,3.13
2023-01-09T22:16:50.540Z,3.28
2023-01-09T22:21:52.615Z,3.38
2023-01-09T22:26:54.452Z,4.03
2023-01-09T22:31:56.396Z,4.00
2023-01-09T22:36:58.281Z,4.30
2023-01-09T22:42:00.184Z,3.53
2023-01-09T22:47:02.053Z,4.28
2023-01-09T22:52:03.984Z,3.83
2023-01-09T22:57:05.850Z,3.40
2023-01-09T23:02:07.699Z,2.83
2023-01-09T23:07:09.684Z,2.80
2023-01-09T23:12:11.614Z,3.40
2023-01-09T23:17:13.415Z,3.08
2023-01-09T23:22:15.232Z,2.72
2023-01-09T23:27:17.194Z,2.88
2023-01-09T23:32:18.956Z,3.28
2023-01-09T23:37:20.759Z,3.03
2023-01-09T23:42:41.067Z,2.97
2023-01-09T23:47:42.844Z,2.30
2023-01-09T23:52:45.358Z,2.78
2023-01-09T23:57:47.184Z,3.67
